sensor_id;sensor_type;location;lat;lon;timestamp;P1;durP1;ratioP1;P2;durP2;ratioP2
54271;SDS011;40184;53.362;5.216;2022-12-11T00:01:59;48.67;;;24.25;;
54271;SDS011;40184;53.362;5.216;2022-12-11T00:04:25;46.70;;;22.65;;
54271;SDS011;40184;53.362;5.216;2022-12-11T00:06:52;52.13;;;25.02;;
54271;SDS011;40184;53.362;5.216;2022-12-11T00:09:18;46.10;;;23.02;;
54271;SDS011;40184;53.362;5.216;2022-12-11T00:11:45;52.75;;;25.08;;
54271;SDS011;40184;53.362;5.216;2022-12-11T00:14:11;44.90;;;22.70;;
54271;SDS011;40184;53.362;5.216;2022-12-11T00:16:38;41.33;;;19.77;;
54271;SDS011;40184;53.362;5.216;2022-12-11T00:19:04;42.50;;;19.67;;
54271;SDS011;40184;53.362;5.216;2022-12-11T00:21:30;35.05;;;17.63;;
54271;SDS011;40184;53.362;5.216;2022-12-11T00:23:56;43.42;;;19.73;;
54271;SDS011;40184;53.362;5.216;2022-12-11T00:26:22;40.08;;;19.55;;
54271;SDS011;40184;53.362;5.216;2022-12-11T00:28:50;39.72;;;19.48;;
54271;SDS011;40184;53.362;5.216;2022-12-11T00:31:18;40.05;;;18.83;;
54271;SDS011;40184;53.362;5.216;2022-12-11T00:33:45;40.78;;;19.40;;
54271;SDS011;40184;53.362;5.216;2022-12-11T00:36:18;34.90;;;16.63;;
54271;SDS011;40184;53.362;5.216;2022-12-11T00:38:46;36.13;;;16.90;;
54271;SDS011;40184;53.362;5.216;2022-12-11T00:41:13;42.60;;;20.55;;
54271;SDS011;40184;53.362;5.216;2022-12-11T00:43:39;41.42;;;19.33;;
54271;SDS011;40184;53.362;5.216;2022-12-11T00:46:05;50.17;;;23.05;;
54271;SDS011;40184;53.362;5.216;2022-12-11T00:48:31;56.10;;;25.00;;
54271;SDS011;40184;53.362;5.216;2022-12-11T00:50:57;39.80;;;21.25;;
54271;SDS011;40184;53.362;5.216;2022-12-11T00:53:22;45.97;;;21.05;;
54271;SDS011;40184;53.362;5.216;2022-12-11T00:55:48;47.25;;;25.00;;
54271;SDS011;40184;53.362;5.216;2022-12-11T00:58:14;45.35;;;23.48;;
54271;SDS011;40184;53.362;5.216;2022-12-11T01:00:41;48.45;;;23.15;;
54271;SDS011;40184;53.362;5.216;2022-12-11T01:03:07;49.55;;;23.17;;
54271;SDS011;40184;53.362;5.216;2022-12-11T01:05:35;45.13;;;22.75;;
54271;SDS011;40184;53.362;5.216;2022-12-11T01:08:01;58.00;;;27.60;;
54271;SDS011;40184;53.362;5.216;2022-12-11T01:10:27;50.20;;;24.45;;
54271;SDS011;40184;53.362;5.216;2022-12-11T01:12:56;42.28;;;23.92;;
54271;SDS011;40184;53.362;5.216;2022-12-11T01:15:28;40.53;;;22.00;;
54271;SDS011;40184;53.362;5.216;2022-12-11T01:17:59;49.00;;;24.13;;
54271;SDS011;40184;53.362;5.216;2022-12-11T01:20:25;41.85;;;21.30;;
54271;SDS011;40184;53.362;5.216;2022-12-11T01:22:52;45.20;;;22.73;;
54271;SDS011;40184;53.362;5.216;2022-12-11T01:25:19;47.90;;;23.77;;
54271;SDS011;40184;53.362;5.216;2022-12-11T01:27:45;41.65;;;22.00;;
54271;SDS011;40184;53.362;5.216;2022-12-11T01:30:11;39.50;;;20.33;;
54271;SDS011;40184;53.362;5.216;2022-12-11T01:32:37;41.90;;;22.17;;
54271;SDS011;40184;53.362;5.216;2022-12-11T01:35:03;48.83;;;24.48;;
54271;SDS011;40184;53.362;5.216;2022-12-11T01:37:31;43.05;;;22.90;;
54271;SDS011;40184;53.362;5.216;2022-12-11T01:39:57;44.08;;;22.60;;
54271;SDS011;40184;53.362;5.216;2022-12-11T01:42:23;49.80;;;23.98;;
54271;SDS011;40184;53.362;5.216;2022-12-11T01:47:14;42.58;;;22.67;;
54271;SDS011;40184;53.362;5.216;2022-12-11T01:49:41;43.83;;;23.52;;
54271;SDS011;40184;53.362;5.216;2022-12-11T01:52:11;50.72;;;26.30;;
54271;SDS011;40184;53.362;5.216;2022-12-11T01:54:43;53.95;;;25.67;;
54271;SDS011;40184;53.362;5.216;2022-12-11T01:57:10;42.97;;;21.83;;
54271;SDS011;40184;53.362;5.216;2022-12-11T01:59:39;42.90;;;21.25;;
54271;SDS011;40184;53.362;5.216;2022-12-11T02:02:25;39.47;;;21.90;;
54271;SDS011;40184;53.362;5.216;2022-12-11T02:04:53;42.35;;;22.63;;
54271;SDS011;40184;53.362;5.216;2022-12-11T02:07:19;42.58;;;22.10;;
54271;SDS011;40184;53.362;5.216;2022-12-11T02:09:45;38.90;;;22.02;;
54271;SDS011;40184;53.362;5.216;2022-12-11T02:20:22;38.75;;;23.33;;
54271;SDS011;40184;53.362;5.216;2022-12-11T02:29:34;41.58;;;23.65;;
54271;SDS011;40184;53.362;5.216;2022-12-11T02:37:41;35.78;;;20.17;;
54271;SDS011;40184;53.362;5.216;2022-12-11T02:40:09;32.42;;;19.63;;
54271;SDS011;40184;53.362;5.216;2022-12-11T02:42:38;30.63;;;17.98;;
54271;SDS011;40184;53.362;5.216;2022-12-11T02:45:06;33.85;;;19.67;;
54271;SDS011;40184;53.362;5.216;2022-12-11T02:47:33;39.95;;;23.10;;
54271;SDS011;40184;53.362;5.216;2022-12-11T02:50:01;33.65;;;19.80;;
54271;SDS011;40184;53.362;5.216;2022-12-11T02:52:33;37.30;;;21.92;;
54271;SDS011;40184;53.362;5.216;2022-12-11T02:55:01;37.75;;;21.55;;
54271;SDS011;40184;53.362;5.216;2022-12-11T02:57:32;40.65;;;23.88;;
54271;SDS011;40184;53.362;5.216;2022-12-11T03:00:03;33.13;;;21.20;;
54271;SDS011;40184;53.362;5.216;2022-12-11T03:02:30;44.33;;;23.90;;
54271;SDS011;40184;53.362;5.216;2022-12-11T03:04:56;47.72;;;25.83;;
54271;SDS011;40184;53.362;5.216;2022-12-11T03:07:24;44.88;;;27.05;;
54271;SDS011;40184;53.362;5.216;2022-12-11T03:09:54;41.53;;;22.73;;
54271;SDS011;40184;53.362;5.216;2022-12-11T03:12:23;39.75;;;23.42;;
54271;SDS011;40184;53.362;5.216;2022-12-11T03:14:53;43.35;;;24.40;;
54271;SDS011;40184;53.362;5.216;2022-12-11T03:20:34;41.17;;;26.38;;
54271;SDS011;40184;53.362;5.216;2022-12-11T03:22:57;43.20;;;25.65;;
54271;SDS011;40184;53.362;5.216;2022-12-11T03:25:39;35.30;;;22.38;;
54271;SDS011;40184;53.362;5.216;2022-12-11T03:28:15;37.03;;;22.02;;
54271;SDS011;40184;53.362;5.216;2022-12-11T03:30:45;42.13;;;25.80;;
54271;SDS011;40184;53.362;5.216;2022-12-11T03:33:34;44.45;;;26.77;;
54271;SDS011;40184;53.362;5.216;2022-12-11T03:36:05;42.50;;;24.10;;
54271;SDS011;40184;53.362;5.216;2022-12-11T03:38:51;43.70;;;23.35;;
54271;SDS011;40184;53.362;5.216;2022-12-11T03:41:24;30.50;;;19.70;;
54271;SDS011;40184;53.362;5.216;2022-12-11T03:43:52;29.33;;;20.77;;
54271;SDS011;40184;53.362;5.216;2022-12-11T03:46:21;34.72;;;21.02;;
54271;SDS011;40184;53.362;5.216;2022-12-11T03:48:51;34.08;;;21.45;;
54271;SDS011;40184;53.362;5.216;2022-12-11T03:51:20;38.80;;;22.65;;
54271;SDS011;40184;53.362;5.216;2022-12-11T03:53:48;35.65;;;24.08;;
54271;SDS011;40184;53.362;5.216;2022-12-11T03:56:14;37.78;;;24.20;;
54271;SDS011;40184;53.362;5.216;2022-12-11T03:58:43;35.75;;;22.45;;
54271;SDS011;40184;53.362;5.216;2022-12-11T04:01:09;34.58;;;20.75;;
54271;SDS011;40184;53.362;5.216;2022-12-11T04:03:35;28.85;;;19.00;;
54271;SDS011;40184;53.362;5.216;2022-12-11T04:06:02;27.02;;;18.80;;
54271;SDS011;40184;53.362;5.216;2022-12-11T04:08:28;37.35;;;20.48;;
54271;SDS011;40184;53.362;5.216;2022-12-11T04:10:54;31.17;;;18.45;;
54271;SDS011;40184;53.362;5.216;2022-12-11T04:13:38;26.15;;;18.85;;
54271;SDS011;40184;53.362;5.216;2022-12-11T04:16:05;27.27;;;19.77;;
54271;SDS011;40184;53.362;5.216;2022-12-11T04:18:31;25.48;;;18.55;;
54271;SDS011;40184;53.362;5.216;2022-12-11T04:21:15;23.27;;;16.65;;
54271;SDS011;40184;53.362;5.216;2022-12-11T04:24:00;22.52;;;15.73;;
54271;SDS011;40184;53.362;5.216;2022-12-11T04:26:44;26.08;;;17.05;;
54271;SDS011;40184;53.362;5.216;2022-12-11T04:29:11;21.80;;;16.27;;
54271;SDS011;40184;53.362;5.216;2022-12-11T04:31:38;22.38;;;16.80;;
54271;SDS011;40184;53.362;5.216;2022-12-11T04:34:03;27.02;;;15.88;;
54271;SDS011;40184;53.362;5.216;2022-12-11T04:36:29;25.80;;;18.52;;
54271;SDS011;40184;53.362;5.216;2022-12-11T04:38:55;32.50;;;22.23;;
54271;SDS011;40184;53.362;5.216;2022-12-11T04:41:21;31.15;;;19.85;;
54271;SDS011;40184;53.362;5.216;2022-12-11T04:43:46;26.65;;;18.02;;
54271;SDS011;40184;53.362;5.216;2022-12-11T04:46:17;32.92;;;20.30;;
54271;SDS011;40184;53.362;5.216;2022-12-11T04:51:11;31.70;;;21.48;;
54271;SDS011;40184;53.362;5.216;2022-12-11T04:53:37;36.88;;;24.77;;
54271;SDS011;40184;53.362;5.216;2022-12-11T04:56:10;34.92;;;23.27;;
54271;SDS011;40184;53.362;5.216;2022-12-11T04:58:37;35.25;;;24.10;;
54271;SDS011;40184;53.362;5.216;2022-12-11T05:01:10;36.55;;;24.60;;
54271;SDS011;40184;53.362;5.216;2022-12-11T05:03:38;38.08;;;25.20;;
54271;SDS011;40184;53.362;5.216;2022-12-11T05:06:04;36.42;;;25.67;;
54271;SDS011;40184;53.362;5.216;2022-12-11T05:08:30;39.17;;;25.45;;
54271;SDS011;40184;53.362;5.216;2022-12-11T05:11:03;34.50;;;25.00;;
54271;SDS011;40184;53.362;5.216;2022-12-11T05:13:30;37.97;;;26.70;;
54271;SDS011;40184;53.362;5.216;2022-12-11T05:15:56;34.70;;;24.10;;
54271;SDS011;40184;53.362;5.216;2022-12-11T05:18:22;31.08;;;23.10;;
54271;SDS011;40184;53.362;5.216;2022-12-11T05:21:01;34.13;;;24.58;;
54271;SDS011;40184;53.362;5.216;2022-12-11T05:23:28;31.98;;;22.88;;
54271;SDS011;40184;53.362;5.216;2022-12-11T05:25:55;27.80;;;22.13;;
54271;SDS011;40184;53.362;5.216;2022-12-11T05:28:29;31.52;;;23.15;;
54271;SDS011;40184;53.362;5.216;2022-12-11T05:30:59;32.42;;;21.58;;
54271;SDS011;40184;53.362;5.216;2022-12-11T05:33:29;31.88;;;21.48;;
54271;SDS011;40184;53.362;5.216;2022-12-11T05:35:55;31.52;;;21.75;;
54271;SDS011;40184;53.362;5.216;2022-12-11T05:38:21;38.75;;;25.92;;
54271;SDS011;40184;53.362;5.216;2022-12-11T05:41:03;32.80;;;24.38;;
54271;SDS011;40184;53.362;5.216;2022-12-11T05:43:31;38.03;;;25.75;;
54271;SDS011;40184;53.362;5.216;2022-12-11T05:46:05;37.03;;;25.85;;
54271;SDS011;40184;53.362;5.216;2022-12-11T05:48:32;32.75;;;23.92;;
54271;SDS011;40184;53.362;5.216;2022-12-11T05:50:58;37.05;;;25.75;;
54271;SDS011;40184;53.362;5.216;2022-12-11T05:53:25;34.60;;;23.35;;
54271;SDS011;40184;53.362;5.216;2022-12-11T05:55:52;27.98;;;22.25;;
54271;SDS011;40184;53.362;5.216;2022-12-11T05:58:18;31.10;;;23.23;;
54271;SDS011;40184;53.362;5.216;2022-12-11T06:00:44;29.55;;;21.48;;
54271;SDS011;40184;53.362;5.216;2022-12-11T06:03:11;33.28;;;22.38;;
54271;SDS011;40184;53.362;5.216;2022-12-11T06:05:37;31.38;;;22.92;;
54271;SDS011;40184;53.362;5.216;2022-12-11T06:08:03;35.65;;;25.38;;
54271;SDS011;40184;53.362;5.216;2022-12-11T06:10:29;37.13;;;25.02;;
54271;SDS011;40184;53.362;5.216;2022-12-11T06:12:55;35.55;;;24.27;;
54271;SDS011;40184;53.362;5.216;2022-12-11T06:15:21;34.45;;;23.73;;
54271;SDS011;40184;53.362;5.216;2022-12-11T06:17:46;30.90;;;24.08;;
54271;SDS011;40184;53.362;5.216;2022-12-11T06:20:12;34.92;;;23.73;;
54271;SDS011;40184;53.362;5.216;2022-12-11T06:22:38;32.50;;;24.33;;
54271;SDS011;40184;53.362;5.216;2022-12-11T06:25:03;39.97;;;25.63;;
54271;SDS011;40184;53.362;5.216;2022-12-11T06:27:29;36.88;;;25.85;;
54271;SDS011;40184;53.362;5.216;2022-12-11T06:29:55;42.00;;;26.80;;
54271;SDS011;40184;53.362;5.216;2022-12-11T06:32:21;35.72;;;23.05;;
54271;SDS011;40184;53.362;5.216;2022-12-11T06:34:46;31.33;;;22.40;;
54271;SDS011;40184;53.362;5.216;2022-12-11T06:37:12;27.65;;;19.92;;
54271;SDS011;40184;53.362;5.216;2022-12-11T06:39:38;20.33;;;16.92;;
54271;SDS011;40184;53.362;5.216;2022-12-11T06:42:03;29.23;;;21.83;;
54271;SDS011;40184;53.362;5.216;2022-12-11T06:44:29;25.83;;;20.13;;
54271;SDS011;40184;53.362;5.216;2022-12-11T06:46:55;28.08;;;21.88;;
54271;SDS011;40184;53.362;5.216;2022-12-11T06:49:20;26.13;;;19.98;;
54271;SDS011;40184;53.362;5.216;2022-12-11T06:51:46;21.35;;;16.80;;
54271;SDS011;40184;53.362;5.216;2022-12-11T06:54:12;23.77;;;18.58;;
54271;SDS011;40184;53.362;5.216;2022-12-11T06:56:38;24.65;;;18.67;;
54271;SDS011;40184;53.362;5.216;2022-12-11T06:59:03;24.25;;;17.05;;
54271;SDS011;40184;53.362;5.216;2022-12-11T07:01:30;18.88;;;15.88;;
54271;SDS011;40184;53.362;5.216;2022-12-11T07:03:56;19.58;;;15.98;;
54271;SDS011;40184;53.362;5.216;2022-12-11T07:06:23;21.38;;;16.35;;
54271;SDS011;40184;53.362;5.216;2022-12-11T07:08:50;20.13;;;15.18;;
54271;SDS011;40184;53.362;5.216;2022-12-11T07:11:16;22.20;;;15.95;;
54271;SDS011;40184;53.362;5.216;2022-12-11T07:13:43;22.92;;;17.30;;
54271;SDS011;40184;53.362;5.216;2022-12-11T07:16:10;18.58;;;14.52;;
54271;SDS011;40184;53.362;5.216;2022-12-11T07:18:41;18.35;;;14.05;;
54271;SDS011;40184;53.362;5.216;2022-12-11T07:23:36;18.08;;;14.90;;
54271;SDS011;40184;53.362;5.216;2022-12-11T07:26:03;17.65;;;14.32;;
54271;SDS011;40184;53.362;5.216;2022-12-11T07:28:33;15.15;;;11.10;;
54271;SDS011;40184;53.362;5.216;2022-12-11T07:31:03;15.15;;;11.10;;
54271;SDS011;40184;53.362;5.216;2022-12-11T07:33:33;12.00;;;10.40;;
54271;SDS011;40184;53.362;5.216;2022-12-11T07:36:00;20.02;;;15.65;;
54271;SDS011;40184;53.362;5.216;2022-12-11T07:38:27;16.33;;;13.35;;
54271;SDS011;40184;53.362;5.216;2022-12-11T07:40:53;16.85;;;13.05;;
54271;SDS011;40184;53.362;5.216;2022-12-11T07:43:18;19.58;;;14.18;;
54271;SDS011;40184;53.362;5.216;2022-12-11T07:45:44;19.63;;;15.27;;
54271;SDS011;40184;53.362;5.216;2022-12-11T07:48:09;19.38;;;14.70;;
54271;SDS011;40184;53.362;5.216;2022-12-11T07:50:36;19.63;;;14.95;;
54271;SDS011;40184;53.362;5.216;2022-12-11T07:53:02;19.80;;;15.68;;
54271;SDS011;40184;53.362;5.216;2022-12-11T07:55:28;19.65;;;15.60;;
54271;SDS011;40184;53.362;5.216;2022-12-11T07:57:53;16.67;;;14.25;;
54271;SDS011;40184;53.362;5.216;2022-12-11T08:00:19;14.70;;;12.32;;
54271;SDS011;40184;53.362;5.216;2022-12-11T08:02:45;18.98;;;13.75;;
54271;SDS011;40184;53.362;5.216;2022-12-11T08:05:11;18.55;;;14.98;;
54271;SDS011;40184;53.362;5.216;2022-12-11T08:07:37;17.73;;;15.27;;
54271;SDS011;40184;53.362;5.216;2022-12-11T08:10:03;19.40;;;15.90;;
54271;SDS011;40184;53.362;5.216;2022-12-11T08:12:29;24.38;;;17.15;;
54271;SDS011;40184;53.362;5.216;2022-12-11T08:14:54;21.13;;;15.50;;
54271;SDS011;40184;53.362;5.216;2022-12-11T08:17:20;19.17;;;14.63;;
54271;SDS011;40184;53.362;5.216;2022-12-11T08:19:46;17.20;;;14.40;;
54271;SDS011;40184;53.362;5.216;2022-12-11T08:22:11;15.88;;;14.15;;
54271;SDS011;40184;53.362;5.216;2022-12-11T08:24:38;20.05;;;13.18;;
54271;SDS011;40184;53.362;5.216;2022-12-11T08:27:04;19.58;;;13.27;;
54271;SDS011;40184;53.362;5.216;2022-12-11T08:29:30;17.02;;;14.10;;
54271;SDS011;40184;53.362;5.216;2022-12-11T08:31:56;21.70;;;15.52;;
54271;SDS011;40184;53.362;5.216;2022-12-11T08:34:22;18.50;;;14.85;;
54271;SDS011;40184;53.362;5.216;2022-12-11T08:36:47;18.88;;;15.48;;
54271;SDS011;40184;53.362;5.216;2022-12-11T08:39:13;18.60;;;14.55;;
54271;SDS011;40184;53.362;5.216;2022-12-11T08:41:39;18.95;;;15.75;;
54271;SDS011;40184;53.362;5.216;2022-12-11T08:44:08;19.33;;;13.63;;
54271;SDS011;40184;53.362;5.216;2022-12-11T08:46:36;18.10;;;14.82;;
54271;SDS011;40184;53.362;5.216;2022-12-11T08:49:02;17.02;;;13.25;;
54271;SDS011;40184;53.362;5.216;2022-12-11T08:51:28;16.45;;;13.25;;
54271;SDS011;40184;53.362;5.216;2022-12-11T08:53:55;19.02;;;14.10;;
54271;SDS011;40184;53.362;5.216;2022-12-11T08:56:23;17.88;;;13.40;;
54271;SDS011;40184;53.362;5.216;2022-12-11T08:58:49;15.18;;;12.43;;
54271;SDS011;40184;53.362;5.216;2022-12-11T09:01:17;14.55;;;11.80;;
54271;SDS011;40184;53.362;5.216;2022-12-11T09:03:47;13.48;;;10.07;;
54271;SDS011;40184;53.362;5.216;2022-12-11T09:06:15;15.07;;;12.50;;
54271;SDS011;40184;53.362;5.216;2022-12-11T09:08:43;23.98;;;17.88;;
54271;SDS011;40184;53.362;5.216;2022-12-11T09:11:11;32.90;;;25.48;;
54271;SDS011;40184;53.362;5.216;2022-12-11T09:13:39;46.00;;;31.95;;
54271;SDS011;40184;53.362;5.216;2022-12-11T09:16:06;46.50;;;30.58;;
54271;SDS011;40184;53.362;5.216;2022-12-11T09:18:35;47.42;;;31.48;;
54271;SDS011;40184;53.362;5.216;2022-12-11T09:21:02;48.80;;;33.00;;
54271;SDS011;40184;53.362;5.216;2022-12-11T09:23:39;48.05;;;33.33;;
54271;SDS011;40184;53.362;5.216;2022-12-11T09:26:09;49.95;;;32.47;;
54271;SDS011;40184;53.362;5.216;2022-12-11T09:28:37;37.38;;;24.67;;
54271;SDS011;40184;53.362;5.216;2022-12-11T09:31:22;49.47;;;33.08;;
54271;SDS011;40184;53.362;5.216;2022-12-11T09:33:50;44.67;;;30.52;;
54271;SDS011;40184;53.362;5.216;2022-12-11T09:36:18;36.28;;;26.77;;
54271;SDS011;40184;53.362;5.216;2022-12-11T09:38:44;27.88;;;19.17;;
54271;SDS011;40184;53.362;5.216;2022-12-11T09:43:58;31.33;;;21.90;;
54271;SDS011;40184;53.362;5.216;2022-12-11T09:46:48;25.42;;;19.98;;
54271;SDS011;40184;53.362;5.216;2022-12-11T09:49:31;20.35;;;17.50;;
54271;SDS011;40184;53.362;5.216;2022-12-11T09:52:10;22.17;;;17.45;;
54271;SDS011;40184;53.362;5.216;2022-12-11T09:54:43;24.80;;;18.13;;
54271;SDS011;40184;53.362;5.216;2022-12-11T09:57:17;22.73;;;16.67;;
54271;SDS011;40184;53.362;5.216;2022-12-11T10:13:29;24.17;;;18.50;;
54271;SDS011;40184;53.362;5.216;2022-12-11T10:16:18;23.05;;;17.10;;
54271;SDS011;40184;53.362;5.216;2022-12-11T10:18:56;21.50;;;17.27;;
54271;SDS011;40184;53.362;5.216;2022-12-11T10:21:23;23.25;;;18.08;;
54271;SDS011;40184;53.362;5.216;2022-12-11T10:23:55;23.15;;;17.00;;
54271;SDS011;40184;53.362;5.216;2022-12-11T10:26:23;19.90;;;16.60;;
54271;SDS011;40184;53.362;5.216;2022-12-11T10:28:49;19.27;;;16.23;;
54271;SDS011;40184;53.362;5.216;2022-12-11T10:34:12;22.08;;;18.80;;
54271;SDS011;40184;53.362;5.216;2022-12-11T10:36:42;23.05;;;18.70;;
54271;SDS011;40184;53.362;5.216;2022-12-11T10:39:13;20.83;;;17.60;;
54271;SDS011;40184;53.362;5.216;2022-12-11T10:41:46;27.25;;;18.95;;
54271;SDS011;40184;53.362;5.216;2022-12-11T10:44:18;24.02;;;19.65;;
54271;SDS011;40184;53.362;5.216;2022-12-11T10:47:06;27.70;;;20.83;;
54271;SDS011;40184;53.362;5.216;2022-12-11T10:49:35;24.98;;;20.30;;
54271;SDS011;40184;53.362;5.216;2022-12-11T10:52:16;24.25;;;18.80;;
54271;SDS011;40184;53.362;5.216;2022-12-11T10:54:46;24.88;;;20.13;;
54271;SDS011;40184;53.362;5.216;2022-12-11T10:57:27;27.48;;;20.83;;
54271;SDS011;40184;53.362;5.216;2022-12-11T10:59:58;29.25;;;20.55;;
54271;SDS011;40184;53.362;5.216;2022-12-11T11:04:53;25.35;;;21.67;;
54271;SDS011;40184;53.362;5.216;2022-12-11T11:12:37;29.95;;;22.23;;
54271;SDS011;40184;53.362;5.216;2022-12-11T11:15:17;33.47;;;23.42;;
54271;SDS011;40184;53.362;5.216;2022-12-11T11:17:50;28.17;;;22.92;;
54271;SDS011;40184;53.362;5.216;2022-12-11T11:20:19;28.50;;;22.05;;
54271;SDS011;40184;53.362;5.216;2022-12-11T11:22:48;29.80;;;23.67;;
54271;SDS011;40184;53.362;5.216;2022-12-11T11:25:18;32.60;;;24.05;;
54271;SDS011;40184;53.362;5.216;2022-12-11T11:27:56;32.50;;;23.50;;
54271;SDS011;40184;53.362;5.216;2022-12-11T11:30:28;27.25;;;23.15;;
54271;SDS011;40184;53.362;5.216;2022-12-11T11:32:57;32.03;;;24.85;;
54271;SDS011;40184;53.362;5.216;2022-12-11T11:35:29;32.25;;;23.08;;
54271;SDS011;40184;53.362;5.216;2022-12-11T11:40:27;26.60;;;21.67;;
54271;SDS011;40184;53.362;5.216;2022-12-11T11:54:14;25.02;;;19.70;;
54271;SDS011;40184;53.362;5.216;2022-12-11T11:56:54;26.63;;;20.08;;
54271;SDS011;40184;53.362;5.216;2022-12-11T11:59:27;25.90;;;19.70;;
54271;SDS011;40184;53.362;5.216;2022-12-11T12:02:13;28.92;;;20.17;;
54271;SDS011;40184;53.362;5.216;2022-12-11T12:04:40;22.40;;;18.73;;
54271;SDS011;40184;53.362;5.216;2022-12-11T12:07:19;22.48;;;18.63;;
54271;SDS011;40184;53.362;5.216;2022-12-11T12:11:04;23.63;;;18.23;;
54271;SDS011;40184;53.362;5.216;2022-12-11T12:13:44;21.45;;;17.38;;
54271;SDS011;40184;53.362;5.216;2022-12-11T12:16:21;19.95;;;17.27;;
54271;SDS011;40184;53.362;5.216;2022-12-11T12:19:13;20.38;;;16.33;;
54271;SDS011;40184;53.362;5.216;2022-12-11T12:21:36;22.92;;;17.40;;
54271;SDS011;40184;53.362;5.216;2022-12-11T12:27:10;22.15;;;16.90;;
54271;SDS011;40184;53.362;5.216;2022-12-11T12:32:22;30.38;;;18.10;;
54271;SDS011;40184;53.362;5.216;2022-12-11T12:42:47;21.17;;;17.77;;
54271;SDS011;40184;53.362;5.216;2022-12-11T12:45:45;24.13;;;17.63;;
54271;SDS011;40184;53.362;5.216;2022-12-11T12:48:15;20.38;;;17.88;;
54271;SDS011;40184;53.362;5.216;2022-12-11T12:50:42;21.65;;;18.35;;
54271;SDS011;40184;53.362;5.216;2022-12-11T12:53:15;22.42;;;17.77;;
54271;SDS011;40184;53.362;5.216;2022-12-11T12:55:47;23.17;;;18.17;;
54271;SDS011;40184;53.362;5.216;2022-12-11T13:00:50;23.85;;;18.33;;
54271;SDS011;40184;53.362;5.216;2022-12-11T13:03:18;22.52;;;18.10;;
54271;SDS011;40184;53.362;5.216;2022-12-11T13:05:54;22.10;;;18.33;;
54271;SDS011;40184;53.362;5.216;2022-12-11T13:08:25;22.77;;;16.95;;
54271;SDS011;40184;53.362;5.216;2022-12-11T13:11:04;23.52;;;18.17;;
54271;SDS011;40184;53.362;5.216;2022-12-11T13:16:04;21.73;;;18.02;;
54271;SDS011;40184;53.362;5.216;2022-12-11T13:18:51;23.17;;;19.58;;
54271;SDS011;40184;53.362;5.216;2022-12-11T13:24:09;24.00;;;19.27;;
54271;SDS011;40184;53.362;5.216;2022-12-11T13:26:38;23.05;;;19.63;;
54271;SDS011;40184;53.362;5.216;2022-12-11T13:29:03;27.70;;;19.40;;
54271;SDS011;40184;53.362;5.216;2022-12-11T13:31:36;25.27;;;20.35;;
54271;SDS011;40184;53.362;5.216;2022-12-11T13:34:12;28.25;;;19.70;;
54271;SDS011;40184;53.362;5.216;2022-12-11T13:36:44;24.00;;;19.17;;
54271;SDS011;40184;53.362;5.216;2022-12-11T13:39:16;23.95;;;19.58;;
54271;SDS011;40184;53.362;5.216;2022-12-11T13:41:47;22.23;;;18.98;;
54271;SDS011;40184;53.362;5.216;2022-12-11T13:44:20;23.05;;;18.83;;
54271;SDS011;40184;53.362;5.216;2022-12-11T13:46:53;25.80;;;20.45;;
54271;SDS011;40184;53.362;5.216;2022-12-11T13:49:34;23.27;;;19.33;;
54271;SDS011;40184;53.362;5.216;2022-12-11T13:52:02;25.23;;;19.13;;
54271;SDS011;40184;53.362;5.216;2022-12-11T13:54:30;26.05;;;20.27;;
54271;SDS011;40184;53.362;5.216;2022-12-11T13:57:02;28.77;;;19.75;;
54271;SDS011;40184;53.362;5.216;2022-12-11T13:59:30;25.75;;;19.77;;
54271;SDS011;40184;53.362;5.216;2022-12-11T14:02:20;25.15;;;18.40;;
54271;SDS011;40184;53.362;5.216;2022-12-11T14:04:54;26.27;;;18.52;;
54271;SDS011;40184;53.362;5.216;2022-12-11T14:07:32;28.35;;;20.67;;
54271;SDS011;40184;53.362;5.216;2022-12-11T14:12:33;29.17;;;21.17;;
54271;SDS011;40184;53.362;5.216;2022-12-11T14:15:00;23.92;;;19.38;;
54271;SDS011;40184;53.362;5.216;2022-12-11T14:17:28;24.38;;;18.70;;
54271;SDS011;40184;53.362;5.216;2022-12-11T14:19:57;25.65;;;18.80;;
54271;SDS011;40184;53.362;5.216;2022-12-11T14:22:26;25.85;;;19.25;;
54271;SDS011;40184;53.362;5.216;2022-12-11T14:24:56;26.83;;;19.40;;
54271;SDS011;40184;53.362;5.216;2022-12-11T14:27:24;23.42;;;16.63;;
54271;SDS011;40184;53.362;5.216;2022-12-11T14:29:51;20.60;;;16.70;;
54271;SDS011;40184;53.362;5.216;2022-12-11T14:34:44;23.02;;;18.20;;
54271;SDS011;40184;53.362;5.216;2022-12-11T14:37:12;24.27;;;17.08;;
54271;SDS011;40184;53.362;5.216;2022-12-11T14:39:41;24.42;;;18.08;;
54271;SDS011;40184;53.362;5.216;2022-12-11T14:42:20;18.90;;;15.13;;
54271;SDS011;40184;53.362;5.216;2022-12-11T14:44:51;22.98;;;15.43;;
54271;SDS011;40184;53.362;5.216;2022-12-11T14:47:21;17.88;;;14.43;;
54271;SDS011;40184;53.362;5.216;2022-12-11T14:52:24;23.00;;;17.38;;
54271;SDS011;40184;53.362;5.216;2022-12-11T14:57:25;16.75;;;12.90;;
54271;SDS011;40184;53.362;5.216;2022-12-11T14:59:54;17.15;;;13.70;;
54271;SDS011;40184;53.362;5.216;2022-12-11T15:05:11;14.23;;;11.30;;
54271;SDS011;40184;53.362;5.216;2022-12-11T15:07:41;17.05;;;12.68;;
54271;SDS011;40184;53.362;5.216;2022-12-11T15:10:20;18.20;;;13.90;;
54271;SDS011;40184;53.362;5.216;2022-12-11T15:12:48;16.02;;;12.68;;
54271;SDS011;40184;53.362;5.216;2022-12-11T15:15:14;17.00;;;11.98;;
54271;SDS011;40184;53.362;5.216;2022-12-11T15:17:41;16.40;;;12.32;;
54271;SDS011;40184;53.362;5.216;2022-12-11T15:20:08;13.77;;;10.93;;
54271;SDS011;40184;53.362;5.216;2022-12-11T15:22:44;19.45;;;14.65;;
54271;SDS011;40184;53.362;5.216;2022-12-11T15:25:17;28.38;;;18.85;;
54271;SDS011;40184;53.362;5.216;2022-12-11T15:27:51;16.17;;;12.48;;
54271;SDS011;40184;53.362;5.216;2022-12-11T15:33:14;35.75;;;22.33;;
54271;SDS011;40184;53.362;5.216;2022-12-11T15:35:51;16.50;;;13.25;;
54271;SDS011;40184;53.362;5.216;2022-12-11T15:38:29;29.98;;;18.58;;
54271;SDS011;40184;53.362;5.216;2022-12-11T15:41:04;25.83;;;18.50;;
54271;SDS011;40184;53.362;5.216;2022-12-11T15:43:35;12.82;;;10.38;;
54271;SDS011;40184;53.362;5.216;2022-12-11T15:46:02;14.95;;;10.98;;
54271;SDS011;40184;53.362;5.216;2022-12-11T15:48:28;16.88;;;10.52;;
54271;SDS011;40184;53.362;5.216;2022-12-11T15:50:54;14.93;;;12.77;;
54271;SDS011;40184;53.362;5.216;2022-12-11T15:53:19;25.95;;;18.70;;
54271;SDS011;40184;53.362;5.216;2022-12-11T15:55:45;31.05;;;23.40;;
54271;SDS011;40184;53.362;5.216;2022-12-11T15:58:13;40.33;;;28.10;;
54271;SDS011;40184;53.362;5.216;2022-12-11T16:00:41;36.05;;;25.90;;
54271;SDS011;40184;53.362;5.216;2022-12-11T16:03:11;36.60;;;26.52;;
54271;SDS011;40184;53.362;5.216;2022-12-11T16:05:38;39.75;;;29.02;;
54271;SDS011;40184;53.362;5.216;2022-12-11T16:08:04;39.55;;;28.35;;
54271;SDS011;40184;53.362;5.216;2022-12-11T16:10:30;34.45;;;26.55;;
54271;SDS011;40184;53.362;5.216;2022-12-11T16:12:56;41.13;;;29.35;;
54271;SDS011;40184;53.362;5.216;2022-12-11T16:15:24;49.80;;;35.75;;
54271;SDS011;40184;53.362;5.216;2022-12-11T16:17:57;38.88;;;28.85;;
54271;SDS011;40184;53.362;5.216;2022-12-11T16:20:24;43.80;;;32.35;;
54271;SDS011;40184;53.362;5.216;2022-12-11T16:22:50;44.72;;;32.35;;
54271;SDS011;40184;53.362;5.216;2022-12-11T16:25:15;40.38;;;30.13;;